Time;durP1;ratioP1;P1;durP2;ratioP2;P2;SDS_P1;SDS_P2;PMS_P1;PMS_P2;Temp;Humidity;BMP_temperature;BMP_pressure;BME280_temperature;BME280_humidity;BME280_pressure;Samples;Min_cycle;Max_cycle;Signal;HPM_P1;HPM_P2
2022/01/31 00:00:30;;;;;;;11.13;3.00;;;2.70;62.10;;;1.31;70.03;98292.13;5102144;28;20513;-77
2022/01/31 00:02:57;;;;;;;11.90;3.50;;;2.80;62.40;;;1.25;70.47;98300.69;5116320;28;20520;-79
2022/01/31 00:05:24;;;;;;;14.50;4.30;;;2.70;62.50;;;1.38;70.03;98298.53;5101279;28;20445;-77
2022/01/31 00:07:51;;;;;;;11.47;3.80;;;2.80;62.50;;;1.47;70.16;98310.09;5104072;28;20464;-78
2022/01/31 00:10:27;;;;;;;10.43;3.60;;;2.90;62.70;;;1.44;70.32;98301.56;5102280;28;20446;-78
2022/01/31 00:13:00;;;;;;;13.87;4.13;;;2.90;62.80;;;1.39;70.30;98291.38;5097761;28;20893;-78
2022/01/31 00:15:27;;;;;;;8.70;3.60;;;2.90;62.80;;;1.47;70.26;98287.97;5093879;28;20493;-78
2022/01/31 00:17:55;;;;;;;14.37;4.13;;;2.90;63.00;;;1.47;70.00;98290.63;5098047;28;20440;-78
2022/01/31 00:20:22;;;;;;;10.00;3.70;;;3.00;63.00;;;1.44;70.43;98261.63;5097989;28;20486;-77
2022/01/31 00:22:49;;;;;;;9.23;3.80;;;2.90;63.00;;;1.42;70.56;98265.28;5097734;28;20915;-77
2022/01/31 00:25:16;;;;;;;5.30;3.50;;;3.00;63.20;;;1.45;70.75;98258.81;5113434;28;20938;-76
2022/01/31 00:27:45;;;;;;;15.30;4.87;;;3.00;63.30;;;1.08;71.52;98218.00;5097601;28;20544;-75
2022/01/31 00:30:12;;;;;;;12.70;3.27;;;2.90;63.50;;;1.38;71.25;98250.59;5114060;28;20443;-76
2022/01/31 00:32:39;;;;;;;12.83;3.43;;;2.90;63.80;;;1.44;71.07;98253.63;5106060;28;20428;-76
2022/01/31 00:35:08;;;;;;;12.90;4.40;;;2.90;63.90;;;1.35;71.27;98226.09;5116947;28;21031;-76
2022/01/31 00:37:35;;;;;;;8.77;3.30;;;2.90;64.10;;;1.36;71.41;98227.75;5098297;28;20758;-76
2022/01/31 00:40:05;;;;;;;18.80;4.03;;;2.80;64.20;;;1.26;71.79;98209.19;5097388;28;20441;-76
2022/01/31 00:42:32;;;;;;;11.63;4.23;;;2.80;64.40;;;1.22;72.05;98223.81;5097377;28;20438;-76
2022/01/31 00:45:11;;;;;;;12.80;3.20;;;2.70;64.60;;;1.08;72.68;98226.00;5096983;28;20548;-77
2022/01/31 00:47:40;;;;;;;12.13;3.77;;;2.60;65.00;;;1.07;73.03;98219.00;5095984;28;20529;-76
2022/01/31 00:50:09;;;;;;;9.43;3.23;;;2.60;65.40;;;1.07;73.04;98224.31;5097220;28;20440;-76
2022/01/31 00:52:38;;;;;;;13.37;4.40;;;2.60;65.80;;;1.05;72.89;98222.78;5096783;28;20779;-75
2022/01/31 00:55:08;;;;;;;8.93;4.00;;;2.60;66.00;;;1.08;72.87;98223.34;5112761;28;20864;-78
2022/01/31 00:57:35;;;;;;;11.20;3.10;;;2.60;66.40;;;1.08;73.35;98231.31;5112728;28;20461;-75
2022/01/31 01:00:06;;;;;;;6.43;3.30;;;2.60;66.50;;;1.15;73.15;98220.91;5097187;28;20449;-75
2022/01/31 01:02:33;;;;;;;16.40;5.00;;;2.60;66.40;;;1.21;73.16;98230.94;5097485;28;20433;-77
2022/01/31 01:05:00;;;;;;;20.07;5.27;;;2.70;66.60;;;1.28;72.53;98207.22;5112515;28;20450;-75
2022/01/31 01:07:27;;;;;;;15.77;4.00;;;2.80;66.60;;;1.20;73.58;98204.50;5096553;28;20518;-77
2022/01/31 01:09:54;;;;;;;8.03;3.83;;;2.70;66.70;;;1.14;74.09;98168.66;5095372;28;20532;-75
2022/01/31 01:12:21;;;;;;;17.20;4.33;;;2.70;67.10;;;1.30;73.42;98169.81;5096923;28;20473;-75
2022/01/31 01:14:49;;;;;;;8.07;3.73;;;2.80;67.40;;;1.23;73.46;98148.28;5095790;28;20435;-76
2022/01/31 01:17:19;;;;;;;7.13;3.80;;;2.80;67.30;;;1.12;73.96;98147.50;5097306;28;20449;-76
2022/01/31 01:19:46;;;;;;;15.97;4.30;;;2.70;67.50;;;1.16;74.00;98148.06;5113005;28;20433;-76
2022/01/31 01:22:13;;;;;;;12.53;4.83;;;2.70;67.80;;;1.17;74.25;98139.06;5096753;28;20473;-76
2022/01/31 01:24:40;;;;;;;9.43;4.07;;;2.70;68.30;;;1.16;74.12;98147.22;5094665;28;20827;-76
2022/01/31 01:27:08;;;;;;;8.00;3.83;;;2.60;68.00;;;1.19;73.81;98162.91;5111949;28;20804;-77
2022/01/31 01:29:35;;;;;;;12.53;3.97;;;2.70;68.10;;;1.23;74.20;98156.28;5096363;28;20448;-77
2022/01/31 01:32:03;;;;;;;10.90;3.93;;;2.70;68.40;;;1.19;74.26;98136.28;5111887;28;20774;-78
2022/01/31 01:34:34;;;;;;;7.17;3.50;;;2.70;68.40;;;1.30;73.95;98125.41;5095211;28;20445;-77
2022/01/31 01:37:03;;;;;;;10.07;4.20;;;2.80;68.50;;;1.26;74.38;98102.72;5096567;28;21003;-78
2022/01/31 01:39:30;;;;;;;13.03;4.30;;;2.70;68.70;;;1.23;74.33;98093.22;5095989;28;20492;-75
2022/01/31 01:41:57;;;;;;;13.37;3.90;;;2.70;68.90;;;1.08;75.04;98087.59;5111788;28;20474;-75
2022/01/31 01:44:42;;;;;;;13.17;3.90;;;2.70;69.10;;;1.03;75.49;98063.28;5112124;28;20437;-76
2022/01/31 01:47:10;;;;;;;7.00;4.63;;;2.60;69.70;;;1.07;75.86;98056.66;5096358;28;20445;-76
2022/01/31 01:49:38;;;;;;;15.60;4.23;;;2.60;70.10;;;0.99;75.95;98043.31;5094316;28;20949;-76
2022/01/31 01:52:06;;;;;;;13.60;4.87;;;2.60;70.40;;;0.89;76.46;98018.59;5095429;28;20971;-76
2022/01/31 01:54:34;;;;;;;13.30;4.27;;;2.50;70.80;;;0.61;77.31;97968.16;5095315;28;20912;-76
2022/01/31 01:57:02;;;;;;;8.03;4.10;;;2.50;71.40;;;0.88;76.83;98007.09;5095423;28;20457;-76
2022/01/31 01:59:32;;;;;;;7.80;4.10;;;2.40;71.70;;;0.90;76.97;98001.66;5095777;28;20449;-77
2022/01/31 02:02:00;;;;;;;12.60;4.10;;;2.50;72.00;;;0.89;77.07;97973.38;5111827;28;20446;-77
2022/01/31 02:04:27;;;;;;;9.87;4.17;;;2.50;72.30;;;0.89;77.27;97957.41;5095596;28;20433;-75
2022/01/31 02:06:56;;;;;;;9.23;3.90;;;2.50;72.60;;;0.90;77.62;97953.75;5096212;28;20438;-76
2022/01/31 02:09:27;;;;;;;13.00;4.20;;;2.40;72.80;;;0.91;77.37;97935.00;5095565;28;20468;-77
2022/01/31 02:11:55;;;;;;;11.90;5.37;;;2.50;73.00;;;0.95;77.20;97922.19;5096169;28;20443;-77
2022/01/31 02:14:22;;;;;;;7.40;4.20;;;2.50;73.10;;;0.87;77.45;97916.84;5095383;28;20898;-77
2022/01/31 02:16:50;;;;;;;12.23;4.30;;;2.50;73.20;;;0.93;77.15;97916.19;5094946;28;20941;-77
2022/01/31 02:19:18;;;;;;;12.43;4.80;;;2.50;73.30;;;0.84;77.65;97904.66;5093926;28;20544;-77
2022/01/31 02:21:51;;;;;;;15.13;4.80;;;2.40;73.90;;;0.92;77.42;97885.25;5095035;28;20450;-76
2022/01/31 02:24:18;;;;;;;12.63;4.90;;;2.50;73.70;;;0.80;78.16;97871.41;5095171;28;20450;-76
2022/01/31 02:26:45;;;;;;;10.20;4.60;;;2.40;73.90;;;0.85;77.91;97858.44;5095413;28;20435;-76
2022/01/31 02:29:13;;;;;;;7.93;4.60;;;2.40;74.10;;;0.90;77.66;97856.13;5093378;28;20493;-75
2022/01/31 02:31:44;;;;;;;8.23;4.50;;;2.40;74.10;;;0.84;77.70;97864.75;5095270;28;20434;-75
2022/01/31 02:34:11;;;;;;;13.17;5.27;;;2.40;74.30;;;0.80;78.25;97868.75;5094986;28;20493;-74
2022/01/31 02:36:39;;;;;;;10.40;4.50;;;2.40;74.50;;;0.88;77.67;97846.66;5095150;28;20496;-76
2022/01/31 02:39:08;;;;;;;9.57;4.30;;;2.40;74.40;;;0.86;78.25;97840.69;5094249;28;20472;-76
2022/01/31 02:41:41;;;;;;;7.00;3.93;;;2.40;74.50;;;0.90;77.72;97855.31;5093666;28;20525;-77
2022/01/31 02:44:14;;;;;;;12.37;4.17;;;2.40;74.40;;;0.81;77.66;97846.47;5095234;28;20895;-77
2022/01/31 02:46:46;;;;;;;11.30;4.70;;;2.40;74.40;;;0.76;77.72;97846.94;5095297;28;20439;-77
2022/01/31 02:49:18;;;;;;;10.20;5.20;;;2.30;74.30;;;0.68;78.13;97809.63;5093413;28;20800;-77
2022/01/31 02:51:49;;;;;;;13.73;5.27;;;2.30;74.50;;;0.65;78.00;97824.09;5095160;28;20477;-75
2022/01/31 02:54:18;;;;;;;8.77;4.40;;;2.30;74.60;;;0.68;78.06;97809.63;5095295;28;20463;-76
2022/01/31 02:56:45;;;;;;;9.40;4.73;;;2.20;74.60;;;0.75;77.76;97805.38;5096116;28;20472;-79
2022/01/31 02:59:12;;;;;;;9.03;5.07;;;2.30;74.70;;;0.72;77.83;97799.53;5097483;28;20544;-76
2022/01/31 03:01:39;;;;;;;7.10;3.83;;;2.20;74.50;;;0.67;77.31;97768.91;5097013;28;20442;-77
2022/01/31 03:04:07;;;;;;;10.40;4.57;;;2.30;74.40;;;0.79;77.44;97740.22;5095450;28;20529;-76
2022/01/31 03:06:36;;;;;;;9.90;4.00;;;2.30;74.40;;;0.76;76.99;97732.56;5100712;28;20438;-78
2022/01/31 03:09:03;;;;;;;13.93;4.53;;;2.30;74.30;;;0.77;77.16;97734.22;5117533;28;20951;-78
2022/01/31 03:11:31;;;;;;;9.40;4.17;;;2.30;74.40;;;0.72;77.57;97725.91;5101359;28;20476;-77
2022/01/31 03:13:59;;;;;;;10.30;4.00;;;2.30;74.40;;;0.41;76.74;97657.31;5101812;28;20446;-77
2022/01/31 03:16:26;;;;;;;11.60;4.70;;;2.30;74.30;;;0.77;76.41;97725.44;5117522;28;20466;-76
2022/01/31 03:18:53;;;;;;;7.30;3.93;;;2.30;73.90;;;0.76;76.30;97705.13;5100471;28;20444;-77
2022/01/31 03:21:19;;;;;;;11.80;4.73;;;2.30;73.80;;;0.72;76.70;97704.63;5112843;28;20979;-75
2022/01/31 03:23:49;;;;;;;12.27;5.00;;;2.30;73.70;;;0.80;76.19;97714.47;5117354;28;20442;-76
2022/01/31 03:26:17;;;;;;;11.97;4.17;;;2.30;73.80;;;0.69;76.78;97705.78;5104553;28;20881;-77
2022/01/31 03:28:46;;;;;;;11.40;4.23;;;2.30;73.60;;;0.61;76.96;97707.56;5097069;28;20456;-77
2022/01/31 03:31:13;;;;;;;5.63;4.07;;;2.20;73.70;;;0.72;76.78;97722.41;5110963;28;20515;-78
2022/01/31 03:33:40;;;;;;;9.60;4.00;;;2.30;73.70;;;0.66;76.88;97710.56;5094663;28;20437;-78
2022/01/31 03:36:07;;;;;;;10.80;5.43;;;2.20;73.90;;;0.70;77.21;97711.94;5094536;28;20547;-79
2022/01/31 03:38:40;;;;;;;8.17;4.80;;;2.20;73.80;;;0.67;76.67;97693.63;5093985;28;20766;-78
2022/01/31 03:41:07;;;;;;;12.53;4.90;;;2.30;74.20;;;0.68;76.74;97692.63;5095227;28;20434;-77
2022/01/31 03:43:34;;;;;;;7.60;5.23;;;2.30;73.70;;;0.67;76.32;97690.97;5102580;28;20440;-77
2022/01/31 03:46:03;;;;;;;12.73;5.33;;;2.30;73.50;;;0.74;76.55;97677.84;5099491;28;20529;-77
2022/01/31 03:48:30;;;;;;;11.40;4.73;;;2.30;73.50;;;0.76;76.67;97679.38;5094529;28;20492;-77
2022/01/31 03:50:57;;;;;;;15.60;5.90;;;2.30;73.70;;;0.73;76.05;97650.44;5097825;28;20428;-77
2022/01/31 03:53:24;;;;;;;10.30;4.40;;;2.30;73.50;;;0.78;76.23;97649.97;5097005;28;20441;-77
2022/01/31 03:55:51;;;;;;;8.23;4.40;;;2.40;73.70;;;0.83;76.36;97637.84;5097046;28;20443;-80
2022/01/31 03:58:18;;;;;;;13.77;5.17;;;2.40;73.70;;;0.78;76.07;97620.69;5097275;28;20458;-74
2022/01/31 04:00:46;;;;;;;10.60;4.93;;;2.40;73.70;;;0.82;76.12;97628.16;5098260;28;20474;-79
2022/01/31 04:03:14;;;;;;;9.70;4.30;;;2.40;73.70;;;0.89;76.08;97630.19;5098458;28;20844;-79
2022/01/31 04:05:43;;;;;;;10.90;4.80;;;2.40;73.60;;;0.73;76.84;97637.16;5114055;28;21019;-79
2022/01/31 04:08:11;;;;;;;7.87;4.23;;;2.30;73.80;;;0.76;76.74;97639.47;5097344;28;20604;-79
2022/01/31 04:10:39;;;;;;;11.13;5.40;;;2.30;73.90;;;0.67;76.85;97635.97;5099331;28;20466;-78
2022/01/31 04:13:06;;;;;;;10.23;4.43;;;2.30;73.90;;;0.80;76.61;97647.97;5098499;28;20468;-78
2022/01/31 04:15:33;;;;;;;11.87;4.63;;;2.30;73.90;;;0.78;76.79;97656.09;5097636;28;20445;-79
2022/01/31 04:18:00;;;;;;;10.60;3.83;;;2.30;73.90;;;0.81;76.52;97649.63;5099767;28;20445;-80
2022/01/31 04:20:29;;;;;;;10.83;4.37;;;2.40;73.80;;;0.84;76.33;97644.81;5101053;28;20459;-81
2022/01/31 04:23:00;;;;;;;15.20;5.20;;;2.40;73.80;;;0.89;76.31;97635.53;5098078;28;20439;-79
2022/01/31 04:25:42;;;;;;;11.23;4.20;;;2.40;73.80;;;0.78;76.76;97615.38;5114048;28;20428;-79
2022/01/31 04:28:17;;;;;;;7.37;4.43;;;2.40;74.00;;;0.82;76.63;97617.53;5097306;28;20926;-79
2022/01/31 04:30:51;;;;;;;8.10;4.07;;;2.40;74.00;;;0.80;76.84;97606.22;5098470;28;20424;-80
2022/01/31 04:33:18;;;;;;;9.10;5.00;;;2.40;74.10;;;0.82;77.04;97590.94;5097267;28;20816;-80
2022/01/31 04:35:47;;;;;;;15.90;4.50;;;2.40;74.30;;;0.29;77.16;97505.25;5096658;28;20464;-81
2022/01/31 04:38:14;;;;;;;15.70;4.37;;;2.40;74.20;;;0.82;77.01;97574.16;5096290;28;20434;-80
2022/01/31 04:40:41;;;;;;;14.90;4.07;;;2.40;74.20;;;0.79;77.32;97574.50;5113628;28;20446;-81
2022/01/31 04:43:08;;;;;;;7.47;4.53;;;2.40;74.40;;;0.92;76.78;97568.69;5113387;28;20474;-80
2022/01/31 04:45:35;;;;;;;9.63;4.00;;;2.40;74.30;;;0.78;76.54;97556.88;5113029;28;20533;-80
2022/01/31 04:48:03;;;;;;;12.90;4.07;;;2.40;74.20;;;0.84;77.12;97549.06;5113858;28;20455;-79
2022/01/31 04:50:30;;;;;;;12.43;4.30;;;2.40;74.50;;;0.81;77.07;97549.38;5113053;28;20433;-79
2022/01/31 04:52:58;;;;;;;11.30;4.50;;;2.40;74.50;;;0.83;77.35;97541.25;5097808;28;20465;-79
2022/01/31 04:55:25;;;;;;;13.07;4.57;;;2.40;74.60;;;0.97;76.56;97532.59;5096825;28;20533;-78
2022/01/31 04:57:52;;;;;;;8.03;4.17;;;2.50;74.40;;;0.88;77.23;97527.44;5096903;28;20439;-79
2022/01/31 05:00:20;;;;;;;17.10;4.57;;;2.40;74.40;;;0.94;77.08;97516.13;5097907;28;20443;-78
2022/01/31 05:02:47;;;;;;;12.80;4.47;;;2.50;74.70;;;0.87;77.21;97504.50;5094961;28;20453;-78
2022/01/31 05:05:13;;;;;;;11.03;4.97;;;2.40;74.70;;;0.91;77.21;97500.50;5097171;28;20438;-78
2022/01/31 05:07:41;;;;;;;11.77;4.73;;;2.50;74.80;;;0.98;77.47;97477.56;5097040;28;20433;-80
2022/01/31 05:10:10;;;;;;;11.60;5.80;;;2.50;74.90;;;0.97;77.30;97475.88;5096959;28;20555;-77
2022/01/31 05:12:37;;;;;;;12.10;4.77;;;2.50;74.80;;;0.89;77.68;97465.28;5112338;28;20440;-78
2022/01/31 05:15:05;;;;;;;15.60;4.90;;;2.50;74.80;;;0.96;77.72;97456.44;5096662;28;20517;-79
2022/01/31 05:17:32;;;;;;;10.00;4.43;;;2.50;75.20;;;1.01;77.66;97457.78;5097421;28;20475;-79
2022/01/31 05:19:59;;;;;;;12.80;4.60;;;2.50;75.00;;;0.88;78.61;97429.03;5097338;28;20523;-79
2022/01/31 05:22:26;;;;;;;10.70;4.83;;;2.50;75.50;;;0.91;78.91;97431.34;5096841;28;20467;-80
2022/01/31 05:24:53;;;;;;;14.93;5.13;;;2.50;76.00;;;0.87;79.23;97417.56;5095012;28;20851;-79
2022/01/31 05:27:21;;;;;;;10.87;4.37;;;2.50;76.30;;;0.87;79.53;97398.94;5100405;28;20917;-78
2022/01/31 05:29:48;;;;;;;11.93;5.77;;;2.50;76.80;;;0.93;79.82;97397.44;5096618;28;20466;-81
2022/01/31 05:32:15;;;;;;;11.77;5.50;;;2.50;76.90;;;0.89;79.22;97380.16;5097204;28;20459;-80
2022/01/31 05:34:42;;;;;;;7.80;5.10;;;2.50;76.80;;;0.91;79.44;97372.84;5096607;28;20483;-79
2022/01/31 05:37:09;;;;;;;12.70;6.43;;;2.50;76.70;;;0.81;79.59;97339.25;5094843;28;20575;-79
2022/01/31 05:39:38;;;;;;;14.07;5.67;;;2.50;76.90;;;1.00;79.14;97355.84;5096104;28;20441;-72
2022/01/31 05:42:06;;;;;;;12.60;6.20;;;2.50;76.70;;;0.53;79.74;97275.03;5094253;28;20930;-71
2022/01/31 05:44:35;;;;;;;9.97;5.30;;;2.60;77.10;;;1.20;79.19;97344.81;5095644;28;20474;-70
2022/01/31 05:47:02;;;;;;;15.90;6.27;;;2.60;77.00;;;1.12;79.15;97349.16;5094085;28;20449;-71
2022/01/31 05:49:29;;;;;;;13.00;5.93;;;2.70;77.10;;;1.11;80.18;97342.16;5095076;28;20466;-72
2022/01/31 05:52:02;;;;;;;10.23;6.03;;;2.60;77.60;;;1.08;79.55;97326.56;5111038;28;20829;-71
2022/01/31 05:54:30;;;;;;;13.23;5.23;;;2.60;77.30;;;1.17;79.40;97316.69;5095402;28;20447;-70
2022/01/31 05:56:57;;;;;;;8.50;4.70;;;2.70;77.50;;;1.25;79.04;97319.34;5095681;28;20441;-73
2022/01/31 05:59:25;;;;;;;9.70;5.10;;;2.70;77.10;;;1.26;78.63;97293.53;5097522;28;20494;-73
2022/01/31 06:01:54;;;;;;;10.77;4.83;;;2.80;77.00;;;1.24;78.96;97290.22;5098608;28;20763;-84
2022/01/31 06:04:21;;;;;;;7.20;4.50;;;2.80;76.90;;;1.34;78.33;97288.19;5098596;28;20490;-85
2022/01/31 06:06:48;;;;;;;11.40;5.00;;;2.80;76.70;;;1.37;78.47;97277.19;5098967;28;20766;-84
2022/01/31 06:09:16;;;;;;;7.73;3.83;;;2.90;76.60;;;1.48;77.63;97278.63;5098318;28;20467;-83
2022/01/31 06:11:44;;;;;;;11.73;5.90;;;2.90;76.40;;;1.21;78.71;97250.66;5096051;28;20437;-80
2022/01/31 06:14:11;;;;;;;12.93;5.10;;;2.80;76.50;;;1.22;78.92;97242.50;5095782;28;20497;-86
2022/01/31 06:16:38;;;;;;;12.37;4.63;;;2.80;77.10;;;1.35;78.78;97220.63;5097041;28;20504;-81
2022/01/31 06:19:07;;;;;;;15.00;5.40;;;2.80;77.00;;;1.37;78.02;97217.81;5095416;28;20473;-79
2022/01/31 06:21:34;;;;;;;11.23;5.27;;;2.90;76.40;;;1.56;78.29;97211.16;5110951;28;20456;-79
2022/01/31 06:24:02;;;;;;;12.00;5.40;;;3.00;76.90;;;1.57;77.58;97202.16;5110735;28;20467;-78
2022/01/31 06:26:29;;;;;;;12.23;5.50;;;3.00;76.40;;;1.45;78.19;97203.63;5096053;28;20753;-78
2022/01/31 06:28:57;;;;;;;9.63;5.13;;;3.00;76.10;;;1.56;77.98;97211.16;5111201;28;20466;-81
2022/01/31 06:31:24;;;;;;;9.93;5.67;;;3.00;76.40;;;1.82;76.93;97215.31;5095447;28;20475;-79
2022/01/31 06:33:51;;;;;;;9.40;5.50;;;3.20;76.20;;;1.51;77.47;97209.03;5095628;28;20450;-77
2022/01/31 06:36:22;;;;;;;11.43;5.33;;;3.10;75.70;;;1.75;77.63;97209.88;5110789;28;20492;-76
2022/01/31 06:38:49;;;;;;;17.87;6.00;;;3.20;76.40;;;1.86;76.16;97200.59;5095136;28;20457;-78
2022/01/31 06:41:18;;;;;;;10.50;5.60;;;3.30;75.30;;;1.49;77.08;97195.06;5094295;28;20537;-76
2022/01/31 06:43:45;;;;;;;10.47;5.13;;;3.10;75.50;;;1.63;78.05;97206.81;5094946;28;20433;-77
2022/01/31 06:46:13;;;;;;;14.17;5.83;;;3.10;76.40;;;1.47;78.77;97193.63;5093433;28;20438;-77
2022/01/31 06:48:40;;;;;;;10.70;6.00;;;3.10;77.30;;;1.39;80.49;97205.97;5095009;28;20470;-77
2022/01/31 06:51:07;;;;;;;10.50;5.60;;;2.90;78.30;;;1.49;80.65;97207.56;5093966;28;20485;-78
2022/01/31 06:53:36;;;;;;;18.73;5.93;;;3.00;78.70;;;1.46;80.66;97203.41;5095527;28;20472;-78
2022/01/31 06:56:04;;;;;;;17.63;6.00;;;3.00;78.90;;;1.35;81.72;97196.69;5093046;28;20446;-72
2022/01/31 06:58:31;;;;;;;11.50;6.20;;;2.90;80.20;;;1.16;83.21;97187.31;5093475;28;20480;-78
2022/01/31 07:00:59;;;;;;;12.10;6.73;;;2.70;81.40;;;0.80;85.91;97174.56;5093421;28;20469;-75
2022/01/31 07:03:26;;;;;;;14.17;6.40;;;2.50;84.00;;;0.87;86.15;97185.31;5094546;28;20488;-74
2022/01/31 07:05:53;;;;;;;13.00;7.60;;;2.50;86.00;;;0.51;88.81;97187.44;5094766;28;20466;-73
2022/01/31 07:08:20;;;;;;;12.90;6.77;;;2.20;90.30;;;0.63;89.08;97174.63;5101049;28;20445;-73
2022/01/31 07:10:51;;;;;;;12.80;5.67;;;2.20;91.60;;;0.45;90.24;97184.66;5109173;28;20494;-72
2022/01/31 07:13:36;;;;;;;14.10;7.13;;;2.10;92.90;;;0.50;91.69;97183.13;5105722;28;20483;-73
2022/01/31 07:16:04;;;;;;;15.90;7.57;;;2.00;96.30;;;0.36;91.63;97174.06;5111228;28;20446;-72
2022/01/31 07:18:32;;;;;;;16.40;7.73;;;2.00;96.20;;;0.23;92.78;97171.09;5094867;28;20478;-73
2022/01/31 07:21:00;;;;;;;11.40;6.63;;;1.90;97.30;;;0.24;93.56;97164.78;5093233;28;20447;-75
2022/01/31 07:23:29;;;;;;;18.87;7.40;;;1.80;99.90;;;0.16;94.49;97170.16;5092699;28;20441;-75
2022/01/31 07:25:59;;;;;;;15.60;10.60;;;1.70;99.90;;;0.21;94.29;97155.31;5093841;28;20471;-75
2022/01/31 07:28:26;;;;;;;11.50;7.90;;;1.70;99.90;;;0.03;95.04;97152.91;5094607;28;20451;-74
2022/01/31 07:30:54;;;;;;;14.90;8.67;;;1.60;99.90;;;0.06;94.95;97157.88;5092830;28;20509;-74
2022/01/31 07:33:21;;;;;;;16.97;8.70;;;1.60;99.90;;;0.06;95.31;97141.09;5103460;28;20429;-73
2022/01/31 07:35:50;;;;;;;23.83;8.53;;;1.60;99.90;;;-0.49;95.84;97064.69;5114016;28;20464;-73
2022/01/31 07:38:19;;;;;;;18.13;8.33;;;1.60;99.90;;;0.01;96.39;97125.69;5108353;28;20439;-74
2022/01/31 07:40:47;;;;;;;16.10;8.97;;;1.60;99.90;;;0.07;95.80;97126.81;5112063;28;20424;-73
2022/01/31 07:43:15;;;;;;;16.87;10.07;;;1.60;99.90;;;-0.09;96.35;97128.50;5110749;28;20481;-73
2022/01/31 07:45:42;;;;;;;15.70;8.20;;;1.50;99.90;;;-0.04;96.73;97128.84;5093753;28;20495;-74
2022/01/31 07:48:09;;;;;;;17.33;8.33;;;1.50;99.90;;;0.01;96.33;97132.81;5092996;28;20477;-74
2022/01/31 07:50:37;;;;;;;15.70;8.17;;;1.60;99.90;;;0.14;95.98;97127.78;5093743;28;20552;-74
2022/01/31 07:53:05;;;;;;;20.73;8.10;;;1.60;99.90;;;0.26;95.61;97129.09;5109946;28;20491;-74
2022/01/31 07:55:32;;;;;;;17.13;7.53;;;1.70;99.90;;;0.04;95.88;97122.69;5109438;28;20457;-74
2022/01/31 07:57:59;;;;;;;17.80;7.83;;;1.60;99.90;;;0.19;95.88;97133.41;5094030;28;20441;-74
2022/01/31 08:00:29;;;;;;;14.83;9.50;;;1.60;99.90;;;-0.21;95.88;97071.47;5093655;28;20449;-74
2022/01/31 08:02:56;;;;;;;14.53;7.73;;;1.70;99.90;;;0.08;95.87;97125.84;5109282;28;20904;-73
2022/01/31 08:05:24;;;;;;;13.30;7.53;;;1.60;99.90;;;-0.04;96.47;97126.19;5109844;28;20453;-74
2022/01/31 08:07:52;;;;;;;12.90;7.77;;;1.60;99.90;;;-0.01;96.40;97111.72;5093036;28;20847;-74
2022/01/31 08:10:19;;;;;;;10.10;6.20;;;1.60;99.90;;;-0.09;97.32;97096.63;5092968;28;20555;-75
2022/01/31 08:12:46;;;;;;;13.73;6.93;;;1.50;99.90;;;0.05;96.64;97099.59;5093362;28;20441;-74
2022/01/31 08:15:22;;;;;;;10.33;6.80;;;1.60;99.90;;;0.12;96.52;97092.59;5093649;28;20782;-75
2022/01/31 08:17:50;;;;;;;8.77;5.53;;;1.70;99.90;;;0.25;96.08;97102.69;5094344;28;20551;-74
2022/01/31 08:20:18;;;;;;;8.93;6.27;;;1.80;99.90;;;0.29;96.20;97085.38;5109064;28;20442;-75
2022/01/31 08:22:45;;;;;;;8.23;5.60;;;1.80;99.90;;;0.28;95.73;97092.53;5092406;28;20921;-75
2022/01/31 08:25:14;;;;;;;9.93;5.60;;;1.80;99.90;;;0.41;95.05;97091.16;5093677;28;20482;-75
2022/01/31 08:27:45;;;;;;;10.00;5.57;;;1.90;99.90;;;0.36;95.51;97094.34;5093346;28;20540;-75
2022/01/31 08:30:18;;;;;;;6.73;4.80;;;1.90;99.90;;;0.46;95.47;97083.47;5093364;28;20464;-74
2022/01/31 08:32:57;;;;;;;8.87;5.70;;;2.00;99.90;;;0.44;95.11;97080.19;5092464;28;20542;-73
2022/01/31 08:38:10;;;;;;;6.80;5.00;;;2.10;99.90;;;0.61;94.66;97085.41;5112899;28;20974;-75
2022/01/31 08:40:38;;;;;;;5.37;4.47;;;2.10;99.90;;;0.58;94.15;97067.16;5096795;28;20763;-74
2022/01/31 08:43:06;;;;;;;5.47;4.00;;;2.20;99.70;;;0.58;94.35;97097.19;5095371;28;20446;-74
2022/01/31 08:45:35;;;;;;;6.27;4.20;;;2.20;99.40;;;0.64;94.29;97074.41;5112441;28;20439;-74
2022/01/31 08:48:02;;;;;;;2.90;2.70;;;2.20;99.30;;;0.35;94.67;97033.38;5101025;28;20442;-74
2022/01/31 08:50:31;;;;;;;4.03;3.70;;;2.20;99.50;;;0.55;95.14;97077.13;5105119;28;20467;-72
2022/01/31 08:52:58;;;;;;;5.80;3.70;;;2.10;99.90;;;0.64;94.96;97079.72;5101071;28;20485;-73
2022/01/31 08:55:26;;;;;;;5.07;3.67;;;2.20;99.90;;;0.58;94.85;97080.44;5100096;28;20501;-73
2022/01/31 08:57:56;;;;;;;3.70;3.40;;;2.20;99.90;;;0.63;95.03;97072.75;5106035;28;20789;-73
2022/01/31 09:00:33;;;;;;;3.80;2.80;;;2.20;99.90;;;0.72;94.41;97071.72;5114911;28;20532;-75
2022/01/31 09:03:07;;;;;;;3.10;2.80;;;2.30;99.90;;;0.80;94.52;97070.84;5099021;28;20425;-74
2022/01/31 09:05:35;;;;;;;3.53;3.13;;;2.30;99.90;;;0.89;94.49;97076.94;5099219;28;20805;-74
2022/01/31 09:08:02;;;;;;;7.00;3.10;;;2.40;99.40;;;0.97;93.74;97074.19;5096241;28;20539;-74
2022/01/31 09:10:29;;;;;;;4.00;3.10;;;2.50;98.40;;;0.95;93.03;97077.06;5096623;28;20475;-75
2022/01/31 09:12:56;;;;;;;3.30;2.83;;;2.50;97.00;;;1.21;92.37;97064.38;5112308;28;20435;-74
2022/01/31 09:15:23;;;;;;;2.90;2.60;;;2.60;96.20;;;0.80;91.58;96978.56;5095495;28;20575;-74
2022/01/31 09:17:51;;;;;;;3.87;2.87;;;2.80;94.20;;;1.50;90.73;97052.16;5094863;28;20440;-74
2022/01/31 09:20:18;;;;;;;3.23;2.77;;;3.00;93.00;;;1.49;90.52;97056.63;5094879;28;20495;-74
2022/01/31 09:22:47;;;;;;;2.47;2.27;;;3.00;92.50;;;1.56;90.73;97070.03;5095326;28;20473;-74
2022/01/31 09:25:15;;;;;;;3.30;3.00;;;3.00;93.00;;;1.64;90.16;97051.34;5096249;28;20427;-75
2022/01/31 09:27:42;;;;;;;2.93;2.63;;;3.10;92.70;;;1.48;88.74;96987.59;5094759;28;20481;-75
2022/01/31 09:30:14;;;;;;;3.20;2.87;;;3.30;91.40;;;1.97;88.29;97048.31;5095660;28;20489;-75
2022/01/31 09:32:41;;;;;;;4.20;2.73;;;3.50;90.70;;;2.06;88.38;97054.38;5111846;28;20498;-75
2022/01/31 09:35:08;;;;;;;2.70;2.50;;;3.50;90.80;;;1.98;87.92;97055.28;5096389;28;20535;-76
2022/01/31 09:37:35;;;;;;;2.67;2.47;;;3.50;90.20;;;1.95;87.88;97047.69;5095420;28;21004;-74
2022/01/31 09:40:05;;;;;;;3.50;2.60;;;3.50;90.30;;;2.04;88.09;97056.41;5095767;28;20801;-75
2022/01/31 09:42:40;;;;;;;3.23;2.40;;;3.50;90.60;;;2.01;87.50;97054.09;5095538;28;20470;-75
2022/01/31 09:45:15;;;;;;;2.70;2.50;;;3.50;90.20;;;2.01;88.31;97047.94;5111966;28;20445;-74
2022/01/31 09:50:27;;;;;;;4.13;2.83;;;3.50;90.90;;;2.12;87.64;97045.66;5112233;28;20467;-75
2022/01/31 09:52:55;;;;;;;4.30;2.93;;;3.60;90.60;;;2.20;87.00;97047.41;5096821;28;20451;-75
2022/01/31 09:55:25;;;;;;;4.30;3.00;;;3.70;90.10;;;2.39;87.09;97051.28;5087455;28;21032;-75
2022/01/31 09:57:52;;;;;;;3.63;3.10;;;3.80;89.90;;;2.15;86.47;97001.78;5076529;28;20957;-74
2022/01/31 10:00:20;;;;;;;3.17;2.73;;;4.00;88.30;;;2.52;86.19;97039.97;5090753;28;20996;-74
2022/01/31 10:03:05;;;;;;;4.40;2.30;;;4.00;87.60;;;2.72;84.98;97038.50;5075259;28;20498;-75
2022/01/31 10:05:32;;;;;;;3.00;2.00;;;4.10;86.50;;;2.78;84.50;97040.44;5075869;28;20493;-76
2022/01/31 10:08:11;;;;;;;3.50;3.00;;;4.20;86.00;;;2.89;85.48;97049.78;5075370;28;20440;-76
2022/01/31 10:10:43;;;;;;;3.13;2.80;;;4.30;87.30;;;2.95;83.53;97039.16;5077940;28;20464;-76
2022/01/31 10:16:26;;;;;;;2.27;2.07;;;4.40;84.40;;;3.07;83.90;97025.31;5074566;28;20449;-78
2022/01/31 10:19:07;;;;;;;2.80;2.30;;;4.60;85.20;;;3.02;83.26;97028.56;5090736;28;20435;-79
2022/01/31 10:21:55;;;;;;;3.20;2.87;;;4.50;83.30;;;3.09;83.86;97025.94;5075436;28;20432;-80
2022/01/31 10:24:25;;;;;;;2.30;2.10;;;4.50;84.70;;;3.24;83.20;97023.19;5074433;28;20447;-81
2022/01/31 10:26:54;;;;;;;4.10;2.30;;;4.60;83.90;;;3.28;82.40;97026.31;5076355;28;20445;-82
2022/01/31 10:29:23;;;;;;;3.50;2.67;;;4.70;83.40;;;3.16;82.94;97023.34;5076669;28;20530;-83
2022/01/31 10:31:57;;;;;;;3.20;2.90;;;4.70;83.30;;;3.03;83.78;97016.88;5091052;28;20483;-79
2022/01/31 10:34:27;;;;;;;7.07;4.03;;;4.50;84.20;;;3.02;84.30;97017.03;5075330;28;20452;-79
2022/01/31 10:36:54;;;;;;;4.77;2.67;;;4.50;85.10;;;2.82;83.51;97018.53;5075385;28;20441;-80
2022/01/31 10:51:54;;;;;;;4.43;3.58;;;4.50;83.60;;;3.15;83.12;97000.34;5088674;28;20445;-81
2022/01/31 10:54:36;;;;;;;4.23;3.60;;;4.50;83.80;;;3.13;82.87;96999.72;5095196;28;20176;-84